Time;durP1;ratioP1;P1;durP2;ratioP2;P2;SDS_P1;SDS_P2;PMS_P1;PMS_P2;Temp;Humidity;BMP_temperature;BMP_pressure;BME280_temperature;BME280_humidity;BME280_pressure;Samples;Min_cycle;Max_cycle;Signal;HPM_P1;HPM_P2
2021/03/08 00:00:12;;;;;;;24.42;13.00;;;3.60;1.00;;;;;;4947707;28;20251;-78
2021/03/08 00:02:39;;;;;;;14.40;12.32;;;3.50;1.00;;;;;;4953396;28;20233;-78
2021/03/08 00:05:06;;;;;;;15.43;11.70;;;3.60;1.00;;;;;;4957217;28;20225;-78
2021/03/08 00:07:32;;;;;;;17.80;12.07;;;3.50;1.00;;;;;;4948952;28;20224;-77
2021/03/08 00:09:59;;;;;;;17.05;12.32;;;3.50;1.00;;;;;;4949568;28;20305;-78
2021/03/08 00:12:26;;;;;;;14.40;11.30;;;3.50;1.00;;;;;;4947393;28;20213;-75
2021/03/08 00:14:52;;;;;;;14.60;10.85;;;3.50;1.00;;;;;;4951180;28;21352;-80
2021/03/08 00:17:18;;;;;;;15.23;10.82;;;3.50;1.00;;;;;;4947150;28;20268;-77
2021/03/08 00:19:44;;;;;;;15.73;11.13;;;3.50;1.00;;;;;;4950957;28;20264;-78
2021/03/08 00:22:10;;;;;;;15.82;12.57;;;3.50;1.00;;;;;;4944740;28;20218;-76
2021/03/08 00:24:37;;;;;;;15.35;11.82;;;3.50;1.00;;;;;;4946897;28;20232;-78
2021/03/08 00:27:05;;;;;;;14.77;11.02;;;3.50;1.00;;;;;;4948739;28;20288;-78
2021/03/08 00:29:33;;;;;;;14.25;11.45;;;3.50;1.00;;;;;;4946419;28;21053;-76
2021/03/08 00:31:59;;;;;;;18.08;11.40;;;3.50;1.00;;;;;;4954153;28;20245;-76
2021/03/08 00:34:25;;;;;;;16.42;11.68;;;3.50;1.00;;;;;;4961128;23;20292;-78
2021/03/08 00:36:51;;;;;;;14.43;11.00;;;3.50;1.00;;;;;;4948587;28;20217;-78
2021/03/08 00:39:18;;;;;;;14.30;10.70;;;3.50;1.00;;;;;;4951449;28;20221;-79
2021/03/08 00:41:44;;;;;;;14.82;10.10;;;3.50;1.00;;;;;;4945632;28;20221;-79
2021/03/08 00:44:11;;;;;;;15.68;11.00;;;3.50;1.00;;;;;;4939053;28;20238;-78
2021/03/08 00:46:37;;;;;;;13.82;10.20;;;3.40;1.00;;;;;;4920768;28;20762;-81
2021/03/08 00:49:04;;;;;;;19.65;11.73;;;3.40;1.00;;;;;;4930501;28;20226;-78
2021/03/08 00:51:30;;;;;;;13.40;10.43;;;3.40;1.00;;;;;;4924123;28;21559;-79
2021/03/08 00:53:56;;;;;;;14.35;9.30;;;3.40;1.00;;;;;;4929111;28;20226;-78
2021/03/08 00:56:23;;;;;;;15.25;11.50;;;3.40;1.00;;;;;;4931209;28;20253;-79
2021/03/08 00:58:49;;;;;;;13.48;10.20;;;3.40;1.00;;;;;;4931155;28;20237;-78
2021/03/08 01:01:16;;;;;;;16.48;10.70;;;3.50;1.00;;;;;;4929046;28;20254;-78
2021/03/08 01:03:43;;;;;;;15.15;10.52;;;3.50;1.00;;;;;;4928805;28;20237;-78
2021/03/08 01:06:09;;;;;;;12.82;9.82;;;3.50;1.00;;;;;;4907135;28;20231;-79
2021/03/08 01:08:35;;;;;;;11.75;10.13;;;3.50;1.00;;;;;;4927732;28;21119;-78
2021/03/08 01:11:01;;;;;;;15.38;9.88;;;3.50;1.00;;;;;;4933132;28;20705;-79
2021/03/08 01:13:28;;;;;;;11.15;9.35;;;3.40;1.00;;;;;;4915225;28;20421;-78
2021/03/08 01:15:54;;;;;;;11.82;8.98;;;3.40;1.00;;;;;;4930959;28;21023;-77
2021/03/08 01:18:21;;;;;;;12.55;9.25;;;3.40;1.00;;;;;;4935165;28;20218;-76
2021/03/08 01:20:48;;;;;;;11.60;8.95;;;3.40;1.00;;;;;;4927927;28;20237;-76
2021/03/08 01:23:15;;;;;;;12.85;9.95;;;3.30;1.00;;;;;;4935214;28;20261;-78
2021/03/08 01:25:42;;;;;;;15.45;9.60;;;3.30;1.00;;;;;;4938545;28;20225;-79
2021/03/08 01:28:09;;;;;;;13.45;10.05;;;3.40;1.00;;;;;;4918489;28;21565;-78
2021/03/08 01:30:37;;;;;;;11.10;8.88;;;3.40;1.00;;;;;;4933136;28;20222;-77
2021/03/08 01:33:03;;;;;;;14.10;10.18;;;3.40;1.00;;;;;;4933848;28;20294;-78
2021/03/08 01:35:30;;;;;;;14.85;9.85;;;3.40;1.00;;;;;;4928255;28;22214;-78
2021/03/08 01:37:57;;;;;;;14.57;10.13;;;3.40;1.00;;;;;;4934030;28;20255;-78
2021/03/08 01:40:26;;;;;;;14.23;10.40;;;3.40;1.00;;;;;;4928436;28;21007;-78
2021/03/08 01:42:53;;;;;;;13.50;8.77;;;3.40;1.00;;;;;;4933606;28;20328;-78
2021/03/08 01:45:20;;;;;;;13.15;8.15;;;3.40;1.00;;;;;;4916524;28;21722;-78
2021/03/08 01:47:49;;;;;;;15.32;10.20;;;3.40;1.00;;;;;;4922607;28;20292;-78
2021/03/08 01:50:21;;;;;;;15.45;8.98;;;3.40;1.00;;;;;;4928266;28;20234;-78
2021/03/08 01:52:50;;;;;;;12.13;9.20;;;3.30;1.00;;;;;;4930925;28;20240;-79
2021/03/08 01:55:17;;;;;;;11.75;9.05;;;3.30;1.00;;;;;;4932936;28;20225;-79
2021/03/08 01:57:43;;;;;;;11.25;8.73;;;3.30;1.00;;;;;;4928864;28;20226;-78
2021/03/08 02:00:12;;;;;;;10.48;8.88;;;3.30;1.00;;;;;;4930421;28;20773;-78
2021/03/08 02:02:39;;;;;;;12.25;8.98;;;3.20;1.00;;;;;;4928738;28;20727;-78
2021/03/08 02:05:07;;;;;;;12.30;7.70;;;3.20;1.00;;;;;;4933159;28;20317;-79
2021/03/08 02:07:34;;;;;;;13.65;7.78;;;3.10;1.00;;;;;;4930563;28;20221;-77
2021/03/08 02:10:02;;;;;;;13.23;8.02;;;3.20;1.00;;;;;;4930153;28;20391;-79
2021/03/08 02:12:38;;;;;;;14.32;6.93;;;3.10;1.00;;;;;;4931503;28;20736;-78
2021/03/08 02:15:13;;;;;;;11.98;8.07;;;3.10;1.00;;;;;;4930061;28;20225;-79
2021/03/08 02:17:49;;;;;;;11.07;7.85;;;3.00;1.00;;;;;;4932876;28;20324;-78
2021/03/08 02:20:46;;;;;;;13.57;9.25;;;2.90;1.00;;;;;;4935440;28;20271;-78
2021/03/08 02:23:35;;;;;;;13.75;9.27;;;2.80;1.00;;;;;;4926778;28;20248;-78
2021/03/08 02:26:38;;;;;;;13.38;7.90;;;2.60;1.00;;;;;;4953190;28;20233;-79
2021/03/08 02:29:34;;;;;;;16.75;8.77;;;2.40;1.00;;;;;;4943631;28;20242;-79
2021/03/08 02:32:04;;;;;;;10.10;7.35;;;2.30;1.00;;;;;;4964752;28;20198;-79
2021/03/08 02:34:34;;;;;;;8.48;7.03;;;2.20;1.00;;;;;;4947826;28;20245;-79
2021/03/08 02:37:03;;;;;;;11.52;8.30;;;2.20;1.00;;;;;;4956687;28;20767;-78
2021/03/08 02:39:32;;;;;;;8.80;7.30;;;2.10;1.00;;;;;;4947857;28;21433;-78
2021/03/08 02:42:01;;;;;;;11.85;8.48;;;2.10;1.00;;;;;;4934221;28;20222;-78
2021/03/08 02:44:31;;;;;;;12.48;8.00;;;2.00;1.00;;;;;;4936866;28;20249;-78
2021/03/08 02:46:59;;;;;;;12.98;8.75;;;2.00;1.00;;;;;;4930521;28;20291;-78
2021/03/08 02:49:28;;;;;;;12.20;8.80;;;1.90;1.00;;;;;;4932796;28;20236;-80
2021/03/08 02:51:59;;;;;;;10.02;6.82;;;1.80;1.00;;;;;;4931904;28;20309;-79
2021/03/08 02:54:30;;;;;;;11.80;7.68;;;1.80;1.00;;;;;;4926526;28;20227;-79
2021/03/08 02:56:59;;;;;;;13.25;7.25;;;1.80;1.00;;;;;;4928538;28;20313;-79
2021/03/08 02:59:27;;;;;;;13.32;8.00;;;1.70;1.00;;;;;;4934002;28;20710;-78
2021/03/08 03:01:55;;;;;;;12.18;7.53;;;1.60;1.00;;;;;;4927550;28;20233;-77
2021/03/08 03:04:23;;;;;;;13.50;8.65;;;1.60;1.00;;;;;;4929700;28;20248;-78
2021/03/08 03:06:52;;;;;;;14.80;7.93;;;1.60;1.00;;;;;;4928968;28;20323;-78
2021/03/08 03:09:21;;;;;;;14.55;8.80;;;1.50;1.00;;;;;;4938278;28;20225;-78
2021/03/08 03:11:51;;;;;;;8.65;7.45;;;1.50;1.00;;;;;;4928130;28;20226;-77
2021/03/08 03:14:19;;;;;;;10.07;6.97;;;1.40;1.00;;;;;;4926446;28;20236;-79
2021/03/08 03:16:48;;;;;;;9.10;7.00;;;1.40;1.00;;;;;;4926350;28;21103;-78
2021/03/08 03:19:18;;;;;;;8.63;6.20;;;1.40;1.00;;;;;;4933734;28;20228;-78
2021/03/08 03:21:47;;;;;;;9.18;6.45;;;1.30;1.00;;;;;;4928760;28;20304;-78
2021/03/08 03:24:14;;;;;;;12.13;6.85;;;1.20;1.00;;;;;;4928360;28;20231;-79
2021/03/08 03:26:42;;;;;;;9.48;6.68;;;1.10;1.00;;;;;;4933234;28;20225;-77
2021/03/08 03:29:10;;;;;;;7.82;5.10;;;1.20;1.00;;;;;;4927474;28;20222;-77
2021/03/08 03:31:39;;;;;;;11.13;7.40;;;1.10;1.00;;;;;;4910692;28;20229;-78
2021/03/08 03:34:06;;;;;;;9.73;6.05;;;1.10;1.00;;;;;;4928313;28;20296;-77
2021/03/08 03:36:33;;;;;;;10.90;5.78;;;1.00;1.00;;;;;;4927905;28;20273;-79
2021/03/08 03:39:00;;;;;;;12.18;5.47;;;0.90;1.00;;;;;;4925782;28;21058;-79
2021/03/08 03:41:27;;;;;;;6.32;4.07;;;0.90;1.00;;;;;;4933289;28;20308;-77
2021/03/08 03:43:54;;;;;;;8.30;4.50;;;0.90;1.00;;;;;;4932026;28;20249;-78
2021/03/08 03:46:21;;;;;;;11.98;4.80;;;0.80;1.00;;;;;;4927182;28;20301;-79
2021/03/08 03:48:47;;;;;;;9.30;4.65;;;0.80;1.00;;;;;;4933034;28;20225;-77
2021/03/08 03:51:13;;;;;;;8.77;4.75;;;0.70;1.00;;;;;;4933071;28;20226;-77
2021/03/08 03:53:40;;;;;;;12.55;5.25;;;0.70;1.00;;;;;;4931680;28;20751;-77
2021/03/08 03:56:06;;;;;;;6.38;4.70;;;0.60;1.00;;;;;;4927114;28;20222;-77
2021/03/08 03:58:39;;;;;;;9.20;5.07;;;0.60;1.00;;;;;;4941813;28;20984;-77
2021/03/08 04:01:10;;;;;;;7.10;4.65;;;0.50;1.00;;;;;;4935867;28;20268;-77
2021/03/08 04:03:45;;;;;;;10.38;4.68;;;0.50;1.00;;;;;;4930565;28;20328;-76
2021/03/08 04:06:12;;;;;;;9.75;5.13;;;0.40;1.00;;;;;;4933352;28;20322;-77
2021/03/08 04:08:43;;;;;;;5.70;4.25;;;0.30;1.00;;;;;;4925411;28;20226;-78
2021/03/08 04:11:10;;;;;;;7.85;4.65;;;0.30;1.00;;;;;;4926739;28;20226;-78
2021/03/08 04:13:38;;;;;;;10.52;4.85;;;0.30;1.00;;;;;;4923285;28;20705;-77
2021/03/08 04:16:06;;;;;;;8.32;5.20;;;0.30;1.00;;;;;;4927865;28;20230;-77
2021/03/08 04:18:34;;;;;;;7.10;4.85;;;0.20;1.00;;;;;;4926076;28;20776;-78
2021/03/08 04:21:01;;;;;;;10.52;5.93;;;0.20;1.00;;;;;;4926638;28;20233;-78
2021/03/08 04:23:29;;;;;;;9.88;4.80;;;0.20;1.00;;;;;;4931642;28;21141;-77
2021/03/08 04:25:55;;;;;;;7.28;4.65;;;0.20;1.00;;;;;;4921867;28;20230;-77
2021/03/08 04:28:24;;;;;;;9.05;5.05;;;0.10;1.00;;;;;;4930023;28;20280;-77
2021/03/08 04:30:51;;;;;;;11.25;5.05;;;0.10;1.00;;;;;;4930845;28;20221;-77
2021/03/08 04:33:18;;;;;;;12.63;4.68;;;0.10;1.00;;;;;;4929009;28;20692;-77
2021/03/08 04:35:46;;;;;;;7.93;4.50;;;0.00;1.00;;;;;;4928128;28;20264;-78
2021/03/08 04:38:13;;;;;;;12.98;5.40;;;0.00;1.00;;;;;;4932119;28;20317;-77
2021/03/08 04:40:40;;;;;;;7.68;4.50;;;0.00;1.00;;;;;;4929072;28;20261;-77
2021/03/08 04:43:07;;;;;;;8.73;6.25;;;-0.10;1.00;;;;;;4928631;28;20316;-77
2021/03/08 04:45:34;;;;;;;6.40;5.15;;;-0.10;1.00;;;;;;4931590;28;20985;-77
2021/03/08 04:48:03;;;;;;;6.57;4.60;;;-0.10;1.00;;;;;;4926532;28;20236;-78
2021/03/08 04:50:30;;;;;;;13.00;5.00;;;-0.10;1.00;;;;;;4930038;28;20230;-77
2021/03/08 04:52:57;;;;;;;7.45;5.07;;;-0.10;1.00;;;;;;4927197;28;20232;-78
2021/03/08 04:55:28;;;;;;;11.05;5.10;;;-0.20;1.00;;;;;;4927665;28;20221;-79
2021/03/08 04:57:54;;;;;;;5.85;4.72;;;-0.20;1.00;;;;;;4935372;28;20258;-79
2021/03/08 05:00:22;;;;;;;12.57;5.82;;;-0.20;1.00;;;;;;4915664;28;20355;-78
2021/03/08 05:02:51;;;;;;;13.30;8.82;;;-0.30;1.00;;;;;;4930063;28;20231;-77
2021/03/08 05:05:21;;;;;;;8.90;6.63;;;-0.30;1.00;;;;;;4915236;28;20306;-77
2021/03/08 05:07:48;;;;;;;7.60;5.78;;;-0.40;1.00;;;;;;4930569;28;20226;-77
2021/03/08 05:10:17;;;;;;;11.45;5.28;;;-0.30;1.00;;;;;;4926350;28;20279;-78
2021/03/08 05:12:43;;;;;;;7.82;5.60;;;-0.30;1.00;;;;;;4929266;28;20663;-78
2021/03/08 05:15:12;;;;;;;8.35;5.18;;;-0.40;1.00;;;;;;4935382;28;20221;-77
2021/03/08 05:17:40;;;;;;;7.75;5.10;;;-0.40;1.00;;;;;;4933390;28;20236;-78
2021/03/08 05:20:08;;;;;;;7.80;5.68;;;-0.40;1.00;;;;;;4932619;28;20257;-78
2021/03/08 05:22:38;;;;;;;10.90;8.23;;;-0.40;1.00;;;;;;4930266;28;20223;-78
2021/03/08 05:25:06;;;;;;;10.43;6.63;;;-0.40;1.00;;;;;;4928650;28;20253;-78
2021/03/08 05:27:33;;;;;;;7.72;6.10;;;-0.50;1.00;;;;;;4932241;28;20329;-78
2021/03/08 05:30:00;;;;;;;11.45;6.78;;;-0.50;1.00;;;;;;4932311;28;20872;-78
2021/03/08 05:32:30;;;;;;;9.52;6.97;;;-0.50;1.00;;;;;;4935321;28;20285;-78
2021/03/08 05:34:59;;;;;;;15.38;10.40;;;-0.50;1.00;;;;;;4933607;28;21146;-78
2021/03/08 05:37:26;;;;;;;12.15;8.88;;;-0.50;1.00;;;;;;4935706;28;20226;-78
2021/03/08 05:39:56;;;;;;;10.77;9.18;;;-0.60;1.00;;;;;;4932343;28;20214;-78
2021/03/08 05:42:22;;;;;;;12.15;8.63;;;-0.60;1.00;;;;;;4930828;28;20308;-78
2021/03/08 05:44:54;;;;;;;13.57;8.70;;;-0.60;1.00;;;;;;4933608;28;20237;-78
2021/03/08 05:47:44;;;;;;;11.57;8.48;;;-0.60;1.00;;;;;;4949165;28;20236;-79
2021/03/08 05:50:37;;;;;;;9.57;8.13;;;-0.70;1.00;;;;;;4961819;28;20262;-77
2021/03/08 05:53:36;;;;;;;8.93;6.45;;;-0.70;1.00;;;;;;4957645;28;20233;-78
2021/03/08 05:56:26;;;;;;;12.35;6.32;;;-0.70;1.00;;;;;;4955229;28;20233;-78
2021/03/08 05:59:14;;;;;;;9.18;6.07;;;-0.70;1.00;;;;;;4953165;28;20230;-78
2021/03/08 06:02:01;;;;;;;7.90;5.90;;;-0.60;1.00;;;;;;4942570;28;20384;-78
2021/03/08 06:05:05;;;;;;;10.35;7.38;;;-0.70;1.00;;;;;;4941479;28;20277;-77
2021/03/08 06:08:07;;;;;;;10.25;7.53;;;-0.60;1.00;;;;;;4933596;28;21312;-78
2021/03/08 06:10:34;;;;;;;9.20;6.80;;;-0.60;1.00;;;;;;4931462;28;20233;-77
2021/03/08 06:13:10;;;;;;;7.90;6.38;;;-0.60;1.00;;;;;;4920902;28;20316;-77
2021/03/08 06:15:37;;;;;;;8.93;6.43;;;-0.60;1.00;;;;;;4932977;28;20224;-78
2021/03/08 06:18:07;;;;;;;7.88;5.55;;;-0.60;1.00;;;;;;4930634;28;20257;-78
2021/03/08 06:20:34;;;;;;;9.50;6.00;;;-0.50;1.00;;;;;;4930412;28;20235;-78
2021/03/08 06:23:02;;;;;;;9.43;5.88;;;-0.50;1.00;;;;;;4916712;28;20627;-77
2021/03/08 06:25:29;;;;;;;8.88;5.90;;;-0.50;1.00;;;;;;4930124;28;20222;-77
2021/03/08 06:27:56;;;;;;;7.72;5.95;;;-0.40;1.00;;;;;;4933263;28;21695;-77
2021/03/08 06:30:25;;;;;;;5.90;4.75;;;-0.40;1.00;;;;;;4935588;28;20304;-77
2021/03/08 06:32:51;;;;;;;5.85;5.25;;;-0.40;1.00;;;;;;4923270;28;20232;-78
2021/03/08 06:35:18;;;;;;;5.13;4.63;;;-0.30;1.00;;;;;;4951436;28;20262;-77
2021/03/08 06:37:47;;;;;;;6.55;5.50;;;-0.20;1.00;;;;;;4941138;28;20317;-77
2021/03/08 06:40:16;;;;;;;5.95;4.93;;;-0.20;1.00;;;;;;4935360;28;20236;-77
2021/03/08 06:42:44;;;;;;;9.93;6.28;;;-0.10;1.00;;;;;;4930260;28;20283;-77
2021/03/08 06:45:11;;;;;;;8.35;6.40;;;-0.10;1.00;;;;;;4933471;28;20252;-78
2021/03/08 06:47:38;;;;;;;7.93;5.82;;;0.00;1.00;;;;;;4931584;28;20252;-78
2021/03/08 06:50:05;;;;;;;7.47;5.40;;;0.10;1.00;;;;;;4930697;28;20297;-79
2021/03/08 06:52:42;;;;;;;6.20;5.60;;;0.10;1.00;;;;;;4931773;28;20714;-78
2021/03/08 06:55:10;;;;;;;9.52;5.53;;;0.20;1.00;;;;;;4931855;28;20241;-77
2021/03/08 06:57:38;;;;;;;8.52;6.35;;;0.30;1.00;;;;;;4936112;28;21030;-78
2021/03/08 07:00:06;;;;;;;10.52;4.85;;;0.30;1.00;;;;;;4928877;28;20229;-78
2021/03/08 07:02:40;;;;;;;6.88;5.60;;;0.40;1.00;;;;;;4933526;28;20285;-79
2021/03/08 07:05:09;;;;;;;6.28;4.95;;;0.50;1.00;;;;;;4939229;28;20332;-78
2021/03/08 07:07:49;;;;;;;5.40;4.30;;;0.60;1.00;;;;;;4933522;28;20427;-78
2021/03/08 07:10:17;;;;;;;5.35;4.22;;;0.70;1.00;;;;;;4928744;28;20772;-78
2021/03/08 07:12:48;;;;;;;5.28;3.88;;;0.80;1.00;;;;;;4931374;28;20783;-77
2021/03/08 07:15:15;;;;;;;6.38;3.92;;;0.90;1.00;;;;;;4935196;28;20220;-77
2021/03/08 07:17:43;;;;;;;9.52;6.05;;;0.90;1.00;;;;;;4930797;28;20221;-77
2021/03/08 07:20:11;;;;;;;9.57;4.90;;;1.10;1.00;;;;;;4912862;28;20229;-77
2021/03/08 07:22:43;;;;;;;7.05;4.15;;;1.20;1.00;;;;;;4927392;28;20233;-77
2021/03/08 07:25:26;;;;;;;6.93;4.15;;;1.30;1.00;;;;;;4933857;28;20225;-78
2021/03/08 07:27:54;;;;;;;8.52;5.55;;;1.50;1.00;;;;;;4934762;28;20267;-78
2021/03/08 07:30:23;;;;;;;7.63;4.53;;;1.60;1.00;;;;;;4927469;28;20236;-77
2021/03/08 07:32:55;;;;;;;7.78;4.85;;;1.60;1.00;;;;;;4931703;28;20396;-77
2021/03/08 07:35:43;;;;;;;5.00;4.10;;;1.60;1.00;;;;;;4931378;28;20229;-77
2021/03/08 07:38:12;;;;;;;6.05;5.10;;;1.70;1.00;;;;;;4934678;28;21039;-78
2021/03/08 07:40:41;;;;;;;5.72;4.38;;;1.80;1.00;;;;;;4915445;28;20277;-77
2021/03/08 07:43:08;;;;;;;7.32;4.00;;;1.90;1.00;;;;;;4933594;28;20837;-78
2021/03/08 07:45:47;;;;;;;4.10;3.30;;;2.00;1.00;;;;;;4933503;28;21038;-78
2021/03/08 07:48:17;;;;;;;5.72;3.60;;;2.10;1.00;;;;;;4927715;28;20320;-78
2021/03/08 07:50:44;;;;;;;7.03;4.43;;;2.20;1.00;;;;;;4937525;28;20725;-77
2021/03/08 07:53:27;;;;;;;5.28;3.97;;;2.30;1.00;;;;;;4928218;28;21015;-77
2021/03/08 07:55:53;;;;;;;5.35;4.00;;;2.40;1.00;;;;;;4930099;28;20312;-78
2021/03/08 07:58:20;;;;;;;5.30;4.00;;;2.50;1.00;;;;;;4928182;28;20229;-79
2021/03/08 08:00:46;;;;;;;7.90;5.70;;;2.70;1.00;;;;;;4932683;28;20356;-79
2021/03/08 08:03:15;;;;;;;5.70;4.45;;;2.70;1.00;;;;;;4933234;28;20241;-79
2021/03/08 08:05:42;;;;;;;5.82;4.25;;;2.80;1.00;;;;;;4936054;28;20218;-81
2021/03/08 08:08:09;;;;;;;6.57;3.85;;;3.00;1.00;;;;;;4939252;28;20713;-79
2021/03/08 08:10:37;;;;;;;9.05;4.97;;;3.10;1.00;;;;;;4933560;28;20304;-79
2021/03/08 08:13:04;;;;;;;6.70;4.95;;;3.20;1.00;;;;;;4939652;28;20212;-80
2021/03/08 08:15:31;;;;;;;7.00;3.85;;;3.30;1.00;;;;;;4944831;28;20253;-79
2021/03/08 08:18:00;;;;;;;5.68;4.80;;;3.30;1.00;;;;;;4939901;28;20262;-78
2021/03/08 08:20:29;;;;;;;6.03;3.53;;;3.40;1.00;;;;;;4939464;28;20312;-77
2021/03/08 08:22:59;;;;;;;4.88;3.30;;;3.50;1.00;;;;;;4916339;28;20257;-79
2021/03/08 08:25:26;;;;;;;5.28;4.20;;;3.70;1.00;;;;;;4935587;28;20241;-81
2021/03/08 08:27:52;;;;;;;5.15;3.05;;;3.80;1.00;;;;;;4935061;28;20233;-80
2021/03/08 08:30:23;;;;;;;6.90;3.15;;;4.00;1.00;;;;;;4918633;29;20254;-80
2021/03/08 08:32:53;;;;;;;4.53;2.75;;;4.10;1.00;;;;;;4934688;28;20258;-80
2021/03/08 08:35:20;;;;;;;2.55;2.08;;;4.20;1.00;;;;;;4945907;28;20251;-81
2021/03/08 08:38:25;;;;;;;5.82;2.97;;;4.20;1.00;;;;;;4928137;28;20226;-80
2021/03/08 08:41:17;;;;;;;2.58;1.88;;;4.20;1.00;;;;;;4940554;28;20225;-80
2021/03/08 08:43:44;;;;;;;2.67;2.10;;;4.40;1.00;;;;;;4948022;28;20241;-81
2021/03/08 08:46:24;;;;;;;5.80;2.33;;;4.50;1.00;;;;;;4948158;28;20227;-81
2021/03/08 08:49:07;;;;;;;13.55;12.35;;;4.60;1.00;;;;;;4931730;28;20273;-80
2021/03/08 08:51:49;;;;;;;6.35;3.85;;;4.80;1.00;;;;;;4932787;28;20221;-81
2021/03/08 08:54:51;;;;;;;3.10;1.90;;;5.20;1.00;;;;;;4927282;28;21030;-78
2021/03/08 08:57:21;;;;;;;4.07;2.10;;;5.50;1.00;;;;;;4915615;28;20240;-77
2021/03/08 09:00:19;;;;;;;2.22;1.50;;;5.60;1.00;;;;;;4928514;28;20229;-77
2021/03/08 09:02:46;;;;;;;1.85;1.35;;;5.90;1.00;;;;;;4929486;28;20229;-76
2021/03/08 09:05:37;;;;;;;4.88;2.42;;;6.40;1.00;;;;;;4929628;28;20278;-78
2021/03/08 09:08:31;;;;;;;2.33;1.77;;;7.40;1.00;;;;;;4929881;28;20648;-77
2021/03/08 09:10:59;;;;;;;5.75;2.90;;;8.90;1.00;;;;;;4906625;28;20342;-79
2021/03/08 09:13:27;;;;;;;3.60;1.43;;;10.20;1.00;;;;;;4942368;28;20286;-77
2021/03/08 09:15:55;;;;;;;2.67;1.50;;;11.70;1.00;;;;;;4945350;28;20426;-77
2021/03/08 09:18:35;;;;;;;3.97;1.93;;;12.80;1.00;;;;;;4947769;28;20663;-78
2021/03/08 09:21:23;;;;;;;1.77;1.30;;;13.50;1.00;;;;;;4950774;28;20434;-80
2021/03/08 09:24:30;;;;;;;2.87;1.97;;;14.10;1.00;;;;;;4944457;28;20434;-77
2021/03/08 09:26:56;;;;;;;3.03;1.90;;;14.80;1.00;;;;;;4957493;28;20467;-77
2021/03/08 09:29:23;;;;;;;3.20;1.60;;;15.30;1.00;;;;;;4954935;28;20478;-78
2021/03/08 09:31:55;;;;;;;3.40;1.63;;;15.40;1.00;;;;;;4944588;28;20480;-77
2021/03/08 09:34:21;;;;;;;4.33;2.50;;;15.50;1.00;;;;;;4940575;28;20552;-76
2021/03/08 09:36:48;;;;;;;3.10;1.87;;;15.70;1.00;;;;;;4942054;28;21353;-77
2021/03/08 09:39:15;;;;;;;3.30;1.97;;;15.50;1.00;;;;;;4935807;28;20536;-77
2021/03/08 09:41:41;;;;;;;3.53;1.77;;;16.10;1.00;;;;;;4927346;28;21359;-76
2021/03/08 09:44:07;;;;;;;2.47;1.60;;;16.80;1.00;;;;;;4929785;28;21022;-76
2021/03/08 09:46:34;;;;;;;4.00;2.20;;;17.30;1.00;;;;;;4927382;28;20492;-77
2021/03/08 09:49:04;;;;;;;3.93;3.10;;;17.80;1.00;;;;;;4923152;29;20469;-79
2021/03/08 09:51:31;;;;;;;5.00;2.43;;;17.90;1.00;;;;;;4931316;28;20500;-79
2021/03/08 09:53:58;;;;;;;3.03;1.67;;;18.40;1.00;;;;;;4930504;28;20565;-81
2021/03/08 09:56:26;;;;;;;3.70;2.33;;;18.40;1.00;;;;;;4937938;28;20462;-81
2021/03/08 09:59:00;;;;;;;6.33;2.27;;;18.50;1.00;;;;;;4937689;28;20476;-81
2021/03/08 10:01:26;;;;;;;6.73;2.20;;;18.50;1.00;;;;;;4939527;28;20490;-81
2021/03/08 10:03:55;;;;;;;4.40;2.00;;;18.90;1.00;;;;;;4940469;28;21308;-81
2021/03/08 10:06:24;;;;;;;3.20;1.50;;;19.00;1.00;;;;;;4940343;28;20414;-80
2021/03/08 10:08:50;;;;;;;5.90;1.90;;;19.30;1.00;;;;;;4933547;28;20605;-82
2021/03/08 10:11:22;;;;;;;10.30;2.07;;;19.50;1.00;;;;;;4940018;28;20866;-81
2021/03/08 10:13:48;;;;;;;4.80;2.20;;;19.80;1.00;;;;;;4929845;28;20466;-80
2021/03/08 10:16:21;;;;;;;7.33;1.70;;;19.40;1.00;;;;;;4937067;28;20487;-82
2021/03/08 10:18:47;;;;;;;6.30;2.23;;;19.40;1.00;;;;;;4918717;29;21087;-80
2021/03/08 10:21:14;;;;;;;11.77;2.77;;;19.50;1.00;;;;;;4936147;28;20548;-79
2021/03/08 10:23:41;;;;;;;6.87;1.43;;;19.80;1.00;;;;;;4933420;28;20495;-78
2021/03/08 10:26:09;;;;;;;11.93;1.93;;;19.80;1.00;;;;;;4930405;28;20509;-78
2021/03/08 10:28:37;;;;;;;12.80;1.37;;;19.50;1.00;;;;;;4945177;28;20458;-79
2021/03/08 10:31:04;;;;;;;15.63;2.30;;;19.00;1.00;;;;;;4940918;28;20589;-78
2021/03/08 10:33:31;;;;;;;7.40;1.50;;;18.90;1.00;;;;;;4934728;28;20504;-77
2021/03/08 10:35:58;;;;;;;42.67;5.53;;;19.30;1.00;;;;;;4933943;28;20410;-77
2021/03/08 10:38:27;;;;;;;10.13;1.97;;;20.50;1.00;;;;;;4933292;28;20498;-78
2021/03/08 10:40:56;;;;;;;3.43;1.10;;;20.80;1.00;;;;;;4934690;28;20447;-78
2021/03/08 10:43:23;;;;;;;3.20;1.27;;;20.60;1.00;;;;;;4930545;28;20481;-79
2021/03/08 10:45:52;;;;;;;10.27;1.80;;;20.30;1.00;;;;;;4934412;28;20472;-78
2021/03/08 10:48:18;;;;;;;28.97;4.03;;;21.00;1.00;;;;;;4937046;28;20460;-77
2021/03/08 10:50:50;;;;;;;14.50;2.70;;;20.80;1.00;;;;;;4931466;28;20480;-78
2021/03/08 10:53:17;;;;;;;8.40;1.53;;;21.40;1.00;;;;;;4930633;28;20464;-78
2021/03/08 10:55:44;;;;;;;10.90;2.50;;;21.80;1.00;;;;;;4939331;28;20448;-76
2021/03/08 10:58:11;;;;;;;8.60;1.60;;;21.00;1.00;;;;;;4931303;28;21329;-77
2021/03/08 11:00:39;;;;;;;26.10;4.43;;;20.80;1.00;;;;;;4932245;28;20454;-77
2021/03/08 11:03:07;;;;;;;25.13;4.33;;;21.40;1.00;;;;;;4934031;28;21498;-78
2021/03/08 11:05:33;;;;;;;10.23;2.20;;;22.10;1.00;;;;;;4936293;28;20465;-78
2021/03/08 11:08:00;;;;;;;58.20;9.70;;;22.60;1.00;;;;;;4932313;28;20531;-77
2021/03/08 11:10:35;;;;;;;3.50;1.50;;;23.10;1.00;;;;;;4934124;28;20472;-77
2021/03/08 11:13:02;;;;;;;15.33;2.80;;;22.70;1.00;;;;;;4938585;28;20459;-77
2021/03/08 11:15:30;;;;;;;7.83;1.90;;;20.80;1.00;;;;;;4935510;28;20588;-77
2021/03/08 11:17:57;;;;;;;14.40;2.73;;;20.70;1.00;;;;;;4933148;28;20566;-77
2021/03/08 11:20:25;;;;;;;8.90;2.33;;;20.50;1.00;;;;;;4931285;28;20543;-77
2021/03/08 11:23:02;;;;;;;9.93;2.57;;;21.20;1.00;;;;;;4931933;28;20483;-77
2021/03/08 11:25:32;;;;;;;3.27;1.10;;;22.00;1.00;;;;;;4935773;28;20511;-77
2021/03/08 11:27:59;;;;;;;3.40;1.17;;;22.80;1.00;;;;;;4944772;28;20447;-76
2021/03/08 11:30:26;;;;;;;2.10;0.97;;;23.00;1.00;;;;;;4942712;28;20446;-76
2021/03/08 11:32:55;;;;;;;6.90;1.30;;;22.30;1.00;;;;;;4952346;28;21095;-76
2021/03/08 11:35:24;;;;;;;9.97;2.00;;;21.60;1.00;;;;;;4953563;28;20429;-76
2021/03/08 11:37:52;;;;;;;10.33;1.47;;;21.90;1.00;;;;;;4956925;28;20445;-76
2021/03/08 11:40:20;;;;;;;55.00;7.70;;;22.30;1.00;;;;;;4957140;28;20455;-77
2021/03/08 11:42:47;;;;;;;4.27;1.53;;;22.30;1.00;;;;;;4962844;28;20482;-75
2021/03/08 11:45:14;;;;;;;15.30;2.23;;;22.70;1.00;;;;;;4955203;28;20418;-77
2021/03/08 11:47:41;;;;;;;6.73;1.70;;;23.10;1.00;;;;;;4963297;28;20405;-76
2021/03/08 11:50:09;;;;;;;14.00;3.27;;;23.60;1.00;;;;;;4960810;28;20407;-77
2021/03/08 11:52:36;;;;;;;10.70;2.00;;;24.10;1.00;;;;;;4957701;28;20412;-77
2021/03/08 11:55:03;;;;;;;5.63;2.07;;;23.40;1.00;;;;;;4955758;28;20448;-78
2021/03/08 11:57:29;;;;;;;2.87;1.10;;;23.40;1.00;;;;;;4957308;28;20488;-77
2021/03/08 11:59:55;;;;;;;5.33;1.70;;;23.60;1.00;;;;;;4958336;28;20437;-77
2021/03/08 12:02:22;;;;;;;10.67;2.30;;;24.00;1.00;;;;;;4953931;28;20653;-77
2021/03/08 12:04:48;;;;;;;2.97;1.43;;;24.50;1.00;;;;;;4952819;28;20463;-77
2021/03/08 12:07:15;;;;;;;12.63;2.23;;;24.00;1.00;;;;;;4961872;28;20470;-77
2021/03/08 12:09:42;;;;;;;5.80;1.77;;;23.90;1.00;;;;;;4955668;28;20537;-77
2021/03/08 12:12:10;;;;;;;6.37;2.43;;;24.00;1.00;;;;;;4958778;28;20457;-77
2021/03/08 12:14:36;;;;;;;4.27;1.27;;;24.10;1.00;;;;;;4961042;28;20419;-78
2021/03/08 12:17:02;;;;;;;8.67;2.37;;;24.20;1.00;;;;;;4953026;28;20572;-77
2021/03/08 12:19:29;;;;;;;6.70;1.67;;;24.00;1.00;;;;;;4954634;28;20404;-77
2021/03/08 12:21:55;;;;;;;3.13;0.80;;;22.90;1.00;;;;;;4954150;28;20481;-78
2021/03/08 12:24:22;;;;;;;6.47;1.47;;;22.60;1.00;;;;;;4954982;28;20457;-78
2021/03/08 12:26:48;;;;;;;7.80;1.90;;;22.50;1.00;;;;;;4956047;28;20440;-77
2021/03/08 12:29:14;;;;;;;6.70;1.97;;;22.70;1.00;;;;;;4957492;28;20423;-77
2021/03/08 12:31:40;;;;;;;6.07;1.40;;;23.70;1.00;;;;;;4958459;28;20431;-77
2021/03/08 12:34:07;;;;;;;6.03;1.47;;;24.30;1.00;;;;;;4954707;28;20444;-77
2021/03/08 12:36:33;;;;;;;7.70;1.63;;;24.90;1.00;;;;;;4957408;28;20426;-76
2021/03/08 12:38:59;;;;;;;2.57;1.30;;;24.90;1.00;;;;;;4953320;28;20429;-77
2021/03/08 12:41:30;;;;;;;4.40;1.70;;;25.10;1.00;;;;;;4944110;28;20456;-77
2021/03/08 12:43:56;;;;;;;5.10;2.60;;;23.60;1.00;;;;;;4955456;28;20418;-76
2021/03/08 12:46:24;;;;;;;5.13;1.10;;;21.50;1.00;;;;;;4950996;28;20459;-76
2021/03/08 12:48:51;;;;;;;11.37;3.10;;;19.90;1.00;;;;;;4951939;28;20424;-76
2021/03/08 12:51:17;;;;;;;6.80;1.50;;;18.90;1.00;;;;;;4953483;28;20450;-76
2021/03/08 12:53:43;;;;;;;2.83;2.00;;;18.00;1.00;;;;;;4946399;28;20441;-76
2021/03/08 12:56:12;;;;;;;4.70;3.10;;;17.30;1.00;;;;;;4953177;28;20459;-76
2021/03/08 12:58:39;;;;;;;5.63;1.43;;;17.10;1.00;;;;;;4952490;28;20543;-77
2021/03/08 13:01:05;;;;;;;2.30;1.77;;;17.50;1.00;;;;;;4958073;28;20478;-77
2021/03/08 13:03:32;;;;;;;6.53;2.43;;;18.50;1.00;;;;;;4962329;28;20457;-77
2021/03/08 13:05:58;;;;;;;7.23;2.10;;;19.00;1.00;;;;;;4952459;28;20458;-77
2021/03/08 13:08:24;;;;;;;7.23;1.90;;;18.70;1.00;;;;;;4956384;28;20409;-76
2021/03/08 13:10:51;;;;;;;12.47;2.90;;;18.30;1.00;;;;;;4961385;28;20467;-76